Stillwell, Illinois
Current Conditions -  °F | °C
As of 11:15 AM on Thursday 23 Oct 2014 (Local Time) from KEOK Reporting Station
Overcast Overcast  
Wind Chill: 54°   Ceiling: 3900
Heat Index: 54°   Visibility: NA
Dew Point: 45°   Wind: 10mph
Humidity: 72%   Direction: 190°S
Pressure: 30.13"   Gusts: 17mph
Location:  40.2413°N, 91.2605°W
Report Text: KEOK 231615Z AUTO 19009G15KT BKN039 BKN060 OVC090 12/07 A3013 RMK AO2
Loading
Personal Weather Stations






























Interactive Weather Map
Tropical Storm Tracking
New forecast layout! Learn more

10-Day Weather Forecast

Advertisements
Track Severe Weather on mobile